sensor_id;sensor_type;location;lat;lon;timestamp;pressure;altitude;pressure_sealevel;temperature;humidity
63903;BME280;50072;50.678;13.938;2023-04-15T00:01:14;98280.56;;;7.90;92.42
63903;BME280;50072;50.678;13.938;2023-04-15T00:03:44;98285.66;;;7.97;90.88
63903;BME280;50072;50.678;13.938;2023-04-15T00:06:16;98283.13;;;7.93;92.48
63903;BME280;50072;50.678;13.938;2023-04-15T00:08:45;98280.19;;;8.01;90.85
63903;BME280;50072;50.678;13.938;2023-04-15T00:11:13;98273.22;;;7.97;90.98
63903;BME280;50072;50.678;13.938;2023-04-15T00:13:44;98279.53;;;7.94;91.21
63903;BME280;50072;50.678;13.938;2023-04-15T00:16:17;98276.06;;;7.92;89.08
63903;BME280;50072;50.678;13.938;2023-04-15T00:18:42;98271.31;;;8.01;89.61
63903;BME280;50072;50.678;13.938;2023-04-15T00:21:11;98273.00;;;8.03;89.60
63903;BME280;50072;50.678;13.938;2023-04-15T00:23:38;98259.97;;;7.95;92.91
63903;BME280;50072;50.678;13.938;2023-04-15T00:26:06;98262.91;;;7.88;91.47
63903;BME280;50072;50.678;13.938;2023-04-15T00:28:38;98256.72;;;7.87;89.99
63903;BME280;50072;50.678;13.938;2023-04-15T00:31:04;98259.19;;;7.92;90.92
63903;BME280;50072;50.678;13.938;2023-04-15T00:33:31;98254.75;;;7.92;90.74
63903;BME280;50072;50.678;13.938;2023-04-15T00:36:05;98250.94;;;8.00;91.78
63903;BME280;50072;50.678;13.938;2023-04-15T00:38:40;98245.56;;;8.01;90.74
63903;BME280;50072;50.678;13.938;2023-04-15T00:41:09;98243.81;;;8.00;90.71
63903;BME280;50072;50.678;13.938;2023-04-15T00:43:41;98252.56;;;8.04;90.44
63903;BME280;50072;50.678;13.938;2023-04-15T00:46:11;98244.72;;;7.99;91.71
63903;BME280;50072;50.678;13.938;2023-04-15T00:48:45;98241.03;;;8.03;92.14
63903;BME280;50072;50.678;13.938;2023-04-15T00:51:12;98239.97;;;8.07;92.56
63903;BME280;50072;50.678;13.938;2023-04-15T00:53:38;98226.53;;;8.10;91.68
63903;BME280;50072;50.678;13.938;2023-04-15T00:56:13;98240.91;;;8.06;91.24
63903;BME280;50072;50.678;13.938;2023-04-15T00:58:38;98235.88;;;7.99;92.45
63903;BME280;50072;50.678;13.938;2023-04-15T01:01:14;98232.22;;;8.01;95.24
63903;BME280;50072;50.678;13.938;2023-04-15T01:03:41;98227.94;;;7.97;96.96
63903;BME280;50072;50.678;13.938;2023-04-15T01:06:10;98229.66;;;7.74;99.50
63903;BME280;50072;50.678;13.938;2023-04-15T01:08:37;98221.84;;;7.70;99.42
63903;BME280;50072;50.678;13.938;2023-04-15T01:11:03;98219.19;;;7.70;100.00
63903;BME280;50072;50.678;13.938;2023-04-15T01:13:40;98234.47;;;7.65;100.00
63903;BME280;50072;50.678;13.938;2023-04-15T01:16:13;98220.84;;;7.72;98.74
63903;BME280;50072;50.678;13.938;2023-04-15T01:18:44;98227.72;;;7.80;98.48
63903;BME280;50072;50.678;13.938;2023-04-15T01:21:14;98214.47;;;7.76;97.41
63903;BME280;50072;50.678;13.938;2023-04-15T01:23:46;98219.81;;;7.76;98.98
63903;BME280;50072;50.678;13.938;2023-04-15T01:26:14;98216.06;;;7.82;98.47
63903;BME280;50072;50.678;13.938;2023-04-15T01:28:43;98212.47;;;7.83;99.69
63903;BME280;50072;50.678;13.938;2023-04-15T01:31:12;98213.31;;;7.84;93.86
63903;BME280;50072;50.678;13.938;2023-04-15T01:33:45;98216.28;;;7.76;94.21
63903;BME280;50072;50.678;13.938;2023-04-15T01:36:14;98190.47;;;7.78;97.49
63903;BME280;50072;50.678;13.938;2023-04-15T01:38:46;98209.47;;;7.69;94.56
63903;BME280;50072;50.678;13.938;2023-04-15T01:41:15;98189.66;;;7.76;95.77
63903;BME280;50072;50.678;13.938;2023-04-15T01:43:46;98207.66;;;7.69;94.84
63903;BME280;50072;50.678;13.938;2023-04-15T01:46:14;98196.31;;;7.64;95.71
63903;BME280;50072;50.678;13.938;2023-04-15T01:48:44;98203.47;;;7.62;96.29
63903;BME280;50072;50.678;13.938;2023-04-15T01:51:16;98191.25;;;7.56;95.81
63903;BME280;50072;50.678;13.938;2023-04-15T01:53:42;98198.28;;;7.59;96.74
63903;BME280;50072;50.678;13.938;2023-04-15T01:56:09;98202.56;;;7.63;95.49
63903;BME280;50072;50.678;13.938;2023-04-15T01:58:42;98201.69;;;7.63;94.13
63903;BME280;50072;50.678;13.938;2023-04-15T02:01:12;98194.69;;;7.60;94.64
63903;BME280;50072;50.678;13.938;2023-04-15T02:03:45;98203.38;;;7.65;97.75
63903;BME280;50072;50.678;13.938;2023-04-15T02:06:17;98189.13;;;7.66;95.32
63903;BME280;50072;50.678;13.938;2023-04-15T02:08:44;98177.56;;;7.67;97.44
63903;BME280;50072;50.678;13.938;2023-04-15T02:11:14;98197.00;;;7.69;94.41
63903;BME280;50072;50.678;13.938;2023-04-15T02:13:40;98174.66;;;7.73;94.70
63903;BME280;50072;50.678;13.938;2023-04-15T02:16:18;98176.00;;;7.62;95.21
63903;BME280;50072;50.678;13.938;2023-04-15T02:18:45;98169.56;;;7.67;95.99
63903;BME280;50072;50.678;13.938;2023-04-15T02:21:14;98175.69;;;7.69;94.89
63903;BME280;50072;50.678;13.938;2023-04-15T02:23:42;98166.72;;;7.72;94.34
63903;BME280;50072;50.678;13.938;2023-04-15T02:26:14;98166.53;;;7.76;93.44
63903;BME280;50072;50.678;13.938;2023-04-15T02:28:41;98168.41;;;7.74;93.04
63903;BME280;50072;50.678;13.938;2023-04-15T02:31:14;98162.97;;;7.77;92.95
63903;BME280;50072;50.678;13.938;2023-04-15T02:33:44;98174.31;;;7.83;93.15
63903;BME280;50072;50.678;13.938;2023-04-15T02:36:16;98175.94;;;7.87;90.21
63903;BME280;50072;50.678;13.938;2023-04-15T02:38:44;98179.66;;;7.83;93.73
63903;BME280;50072;50.678;13.938;2023-04-15T02:41:13;98177.13;;;7.80;92.35
63903;BME280;50072;50.678;13.938;2023-04-15T02:43:44;98178.69;;;7.85;93.17
63903;BME280;50072;50.678;13.938;2023-04-15T02:46:16;98186.59;;;7.87;95.63
63903;BME280;50072;50.678;13.938;2023-04-15T02:48:44;98176.28;;;7.77;95.21
63903;BME280;50072;50.678;13.938;2023-04-15T02:51:18;98169.97;;;7.80;93.75
63903;BME280;50072;50.678;13.938;2023-04-15T02:53:45;98180.63;;;7.80;95.28
63903;BME280;50072;50.678;13.938;2023-04-15T02:56:14;98174.78;;;7.70;97.21
63903;BME280;50072;50.678;13.938;2023-04-15T02:58:47;98184.41;;;7.74;94.53
63903;BME280;50072;50.678;13.938;2023-04-15T03:01:15;98185.91;;;7.82;94.56
63903;BME280;50072;50.678;13.938;2023-04-15T03:03:46;98196.66;;;7.78;96.24
63903;BME280;50072;50.678;13.938;2023-04-15T03:06:14;98192.56;;;7.70;96.01
63903;BME280;50072;50.678;13.938;2023-04-15T03:08:45;98185.44;;;7.70;96.57
63903;BME280;50072;50.678;13.938;2023-04-15T03:11:18;98188.16;;;7.69;92.91
63903;BME280;50072;50.678;13.938;2023-04-15T03:13:44;98187.75;;;7.80;94.26
63903;BME280;50072;50.678;13.938;2023-04-15T03:16:14;98186.81;;;7.81;93.38
63903;BME280;50072;50.678;13.938;2023-04-15T03:18:47;98176.00;;;7.85;93.47
63903;BME280;50072;50.678;13.938;2023-04-15T03:21:15;98184.03;;;7.84;92.63
63903;BME280;50072;50.678;13.938;2023-04-15T03:23:45;98184.16;;;7.81;95.72
63903;BME280;50072;50.678;13.938;2023-04-15T03:26:30;98192.13;;;7.81;96.92
63903;BME280;50072;50.678;13.938;2023-04-15T03:29:05;98186.75;;;7.58;97.83
63903;BME280;50072;50.678;13.938;2023-04-15T03:31:37;98192.91;;;7.35;100.00
63903;BME280;50072;50.678;13.938;2023-04-15T03:34:08;98199.47;;;7.25;100.00
63903;BME280;50072;50.678;13.938;2023-04-15T03:36:35;98197.59;;;7.29;100.00
63903;BME280;50072;50.678;13.938;2023-04-15T03:39:08;98195.56;;;7.35;100.00
63903;BME280;50072;50.678;13.938;2023-04-15T03:41:38;98198.28;;;7.34;100.00
63903;BME280;50072;50.678;13.938;2023-04-15T03:44:05;98204.38;;;7.37;100.00
63903;BME280;50072;50.678;13.938;2023-04-15T03:46:32;98209.59;;;7.40;100.00
63903;BME280;50072;50.678;13.938;2023-04-15T03:49:05;98215.81;;;7.39;100.00
63903;BME280;50072;50.678;13.938;2023-04-15T03:51:33;98223.66;;;7.44;100.00
63903;BME280;50072;50.678;13.938;2023-04-15T03:54:07;98237.13;;;7.39;100.00
63903;BME280;50072;50.678;13.938;2023-04-15T03:56:33;98251.94;;;7.21;100.00
63903;BME280;50072;50.678;13.938;2023-04-15T03:59:06;98262.13;;;7.08;100.00
63903;BME280;50072;50.678;13.938;2023-04-15T04:01:45;98266.78;;;7.02;100.00
63903;BME280;50072;50.678;13.938;2023-04-15T04:04:14;98281.97;;;6.98;100.00
63903;BME280;50072;50.678;13.938;2023-04-15T04:06:41;98289.25;;;6.93;100.00
63903;BME280;50072;50.678;13.938;2023-04-15T04:09:08;98294.34;;;6.99;100.00
63903;BME280;50072;50.678;13.938;2023-04-15T04:11:41;98295.38;;;6.95;100.00
63903;BME280;50072;50.678;13.938;2023-04-15T04:14:06;98290.69;;;7.03;100.00
63903;BME280;50072;50.678;13.938;2023-04-15T04:16:41;98294.88;;;7.11;100.00
63903;BME280;50072;50.678;13.938;2023-04-15T04:19:15;98291.81;;;7.23;100.00
63903;BME280;50072;50.678;13.938;2023-04-15T04:21:45;98290.84;;;7.25;100.00
63903;BME280;50072;50.678;13.938;2023-04-15T04:24:14;98285.59;;;7.22;100.00
63903;BME280;50072;50.678;13.938;2023-04-15T04:26:43;98289.00;;;7.28;100.00
63903;BME280;50072;50.678;13.938;2023-04-15T04:29:12;98286.44;;;7.24;100.00
63903;BME280;50072;50.678;13.938;2023-04-15T04:31:39;98290.91;;;7.22;100.00
63903;BME280;50072;50.678;13.938;2023-04-15T04:34:09;98293.44;;;7.27;100.00
63903;BME280;50072;50.678;13.938;2023-04-15T04:36:37;98296.13;;;7.27;100.00
63903;BME280;50072;50.678;13.938;2023-04-15T04:39:14;98299.47;;;7.32;100.00
63903;BME280;50072;50.678;13.938;2023-04-15T04:41:43;98295.09;;;7.31;100.00
63903;BME280;50072;50.678;13.938;2023-04-15T04:44:10;98300.72;;;7.22;100.00
63903;BME280;50072;50.678;13.938;2023-04-15T04:46:39;98307.66;;;7.26;100.00
63903;BME280;50072;50.678;13.938;2023-04-15T04:49:09;98307.41;;;7.34;100.00
63903;BME280;50072;50.678;13.938;2023-04-15T04:51:38;98308.06;;;7.40;100.00
63903;BME280;50072;50.678;13.938;2023-04-15T04:54:11;98303.88;;;7.33;100.00
63903;BME280;50072;50.678;13.938;2023-04-15T04:56:44;98285.97;;;7.38;100.00
63903;BME280;50072;50.678;13.938;2023-04-15T04:59:14;98297.38;;;7.42;100.00
63903;BME280;50072;50.678;13.938;2023-04-15T05:01:42;98291.06;;;7.45;100.00
63903;BME280;50072;50.678;13.938;2023-04-15T05:04:08;98298.88;;;7.49;100.00
63903;BME280;50072;50.678;13.938;2023-04-15T05:06:40;98299.78;;;7.50;100.00
63903;BME280;50072;50.678;13.938;2023-04-15T05:09:14;98304.03;;;7.55;100.00
63903;BME280;50072;50.678;13.938;2023-04-15T05:11:41;98303.19;;;7.53;100.00
63903;BME280;50072;50.678;13.938;2023-04-15T05:14:09;98310.47;;;7.48;100.00
63903;BME280;50072;50.678;13.938;2023-04-15T05:16:41;98310.50;;;7.47;100.00
63903;BME280;50072;50.678;13.938;2023-04-15T05:19:15;98299.88;;;7.47;100.00
63903;BME280;50072;50.678;13.938;2023-04-15T05:21:41;98306.81;;;7.51;100.00
63903;BME280;50072;50.678;13.938;2023-04-15T05:24:09;98306.81;;;7.51;100.00
63903;BME280;50072;50.678;13.938;2023-04-15T05:26:36;98312.16;;;7.51;100.00
63903;BME280;50072;50.678;13.938;2023-04-15T05:29:10;98322.78;;;7.51;100.00
63903;BME280;50072;50.678;13.938;2023-04-15T05:31:44;98327.25;;;7.50;100.00
63903;BME280;50072;50.678;13.938;2023-04-15T05:34:12;98340.78;;;7.44;100.00
63903;BME280;50072;50.678;13.938;2023-04-15T05:36:40;98336.09;;;7.51;100.00
63903;BME280;50072;50.678;13.938;2023-04-15T05:39:14;98338.03;;;7.47;100.00
63903;BME280;50072;50.678;13.938;2023-04-15T05:41:44;98342.22;;;7.54;100.00
63903;BME280;50072;50.678;13.938;2023-04-15T05:44:16;98347.31;;;7.60;100.00
63903;BME280;50072;50.678;13.938;2023-04-15T05:46:44;98346.28;;;7.65;100.00
63903;BME280;50072;50.678;13.938;2023-04-15T05:49:14;98356.19;;;7.61;100.00
63903;BME280;50072;50.678;13.938;2023-04-15T05:51:41;98343.50;;;7.68;100.00
63903;BME280;50072;50.678;13.938;2023-04-15T05:54:14;98352.34;;;7.70;100.00
63903;BME280;50072;50.678;13.938;2023-04-15T05:56:44;98361.31;;;7.67;100.00
63903;BME280;50072;50.678;13.938;2023-04-15T05:59:11;98372.06;;;7.64;100.00
63903;BME280;50072;50.678;13.938;2023-04-15T06:01:37;98376.41;;;7.67;100.00
63903;BME280;50072;50.678;13.938;2023-04-15T06:04:05;98377.16;;;7.70;100.00
63903;BME280;50072;50.678;13.938;2023-04-15T06:06:31;98383.56;;;7.65;100.00
63903;BME280;50072;50.678;13.938;2023-04-15T06:08:57;98379.16;;;7.64;100.00
63903;BME280;50072;50.678;13.938;2023-04-15T06:11:23;98386.22;;;7.65;100.00
63903;BME280;50072;50.678;13.938;2023-04-15T06:13:51;98391.41;;;7.69;100.00
63903;BME280;50072;50.678;13.938;2023-04-15T06:16:17;98389.34;;;7.77;100.00
63903;BME280;50072;50.678;13.938;2023-04-15T06:18:42;98392.91;;;7.76;100.00
63903;BME280;50072;50.678;13.938;2023-04-15T06:21:08;98409.13;;;7.70;100.00
63903;BME280;50072;50.678;13.938;2023-04-15T06:23:35;98408.81;;;7.53;100.00
63903;BME280;50072;50.678;13.938;2023-04-15T06:26:02;98406.19;;;7.24;100.00
63903;BME280;50072;50.678;13.938;2023-04-15T06:28:28;98407.03;;;6.97;100.00
63903;BME280;50072;50.678;13.938;2023-04-15T06:30:54;98409.09;;;6.88;100.00
63903;BME280;50072;50.678;13.938;2023-04-15T06:33:20;98418.03;;;6.86;100.00
63903;BME280;50072;50.678;13.938;2023-04-15T06:35:47;98413.72;;;6.82;100.00
63903;BME280;50072;50.678;13.938;2023-04-15T06:38:14;98415.75;;;6.72;100.00
63903;BME280;50072;50.678;13.938;2023-04-15T06:40:41;98424.78;;;6.66;99.90
63903;BME280;50072;50.678;13.938;2023-04-15T06:43:07;98420.47;;;6.62;100.00
63903;BME280;50072;50.678;13.938;2023-04-15T06:45:34;98430.28;;;6.60;100.00
63903;BME280;50072;50.678;13.938;2023-04-15T06:47:59;98422.53;;;6.52;99.57
63903;BME280;50072;50.678;13.938;2023-04-15T06:50:26;98425.94;;;6.57;99.88
63903;BME280;50072;50.678;13.938;2023-04-15T06:52:53;98437.28;;;6.64;99.82
63903;BME280;50072;50.678;13.938;2023-04-15T06:55:20;98429.41;;;6.60;98.49
63903;BME280;50072;50.678;13.938;2023-04-15T06:57:46;98446.16;;;6.63;98.56
63903;BME280;50072;50.678;13.938;2023-04-15T07:00:13;98452.13;;;6.71;98.82
63903;BME280;50072;50.678;13.938;2023-04-15T07:02:39;98455.69;;;6.70;97.74
63903;BME280;50072;50.678;13.938;2023-04-15T07:05:06;98470.56;;;6.78;100.00
63903;BME280;50072;50.678;13.938;2023-04-15T07:07:32;98472.03;;;6.88;100.00
63903;BME280;50072;50.678;13.938;2023-04-15T07:09:58;98477.72;;;6.76;100.00
63903;BME280;50072;50.678;13.938;2023-04-15T07:12:24;98477.63;;;6.79;98.80
63903;BME280;50072;50.678;13.938;2023-04-15T07:14:50;98481.84;;;6.86;100.00
63903;BME280;50072;50.678;13.938;2023-04-15T07:17:16;98480.84;;;6.90;99.50
63903;BME280;50072;50.678;13.938;2023-04-15T07:19:44;98482.16;;;7.05;100.00
63903;BME280;50072;50.678;13.938;2023-04-15T07:22:10;98486.22;;;7.17;100.00
63903;BME280;50072;50.678;13.938;2023-04-15T07:24:42;98481.56;;;7.25;100.00
63903;BME280;50072;50.678;13.938;2023-04-15T07:27:08;98482.25;;;7.32;100.00
63903;BME280;50072;50.678;13.938;2023-04-15T07:29:34;98487.31;;;7.39;100.00
63903;BME280;50072;50.678;13.938;2023-04-15T07:32:00;98485.00;;;7.29;95.25
63903;BME280;50072;50.678;13.938;2023-04-15T07:34:26;98478.38;;;7.42;97.29
63903;BME280;50072;50.678;13.938;2023-04-15T07:36:53;98487.75;;;7.54;98.95
63903;BME280;50072;50.678;13.938;2023-04-15T07:39:19;98491.16;;;7.59;98.91
63903;BME280;50072;50.678;13.938;2023-04-15T07:41:44;98496.38;;;7.62;100.00
63903;BME280;50072;50.678;13.938;2023-04-15T07:44:11;98498.13;;;7.63;97.40
63903;BME280;50072;50.678;13.938;2023-04-15T07:46:37;98502.53;;;7.64;99.86
63903;BME280;50072;50.678;13.938;2023-04-15T07:49:03;98509.56;;;7.67;99.21
63903;BME280;50072;50.678;13.938;2023-04-15T07:51:30;98503.94;;;7.76;100.00
63903;BME280;50072;50.678;13.938;2023-04-15T07:53:56;98518.16;;;7.75;95.38
63903;BME280;50072;50.678;13.938;2023-04-15T07:56:23;98509.56;;;7.67;94.35
63903;BME280;50072;50.678;13.938;2023-04-15T07:58:56;98511.97;;;7.74;96.21
63903;BME280;50072;50.678;13.938;2023-04-15T08:01:35;98516.44;;;7.74;94.03
63903;BME280;50072;50.678;13.938;2023-04-15T08:04:03;98511.88;;;7.77;94.37
63903;BME280;50072;50.678;13.938;2023-04-15T08:06:35;98512.69;;;7.80;93.80
63903;BME280;50072;50.678;13.938;2023-04-15T08:09:10;98507.28;;;7.83;92.34
63903;BME280;50072;50.678;13.938;2023-04-15T08:11:48;98516.75;;;7.91;92.50
63903;BME280;50072;50.678;13.938;2023-04-15T08:14:17;98523.19;;;7.84;89.63
63903;BME280;50072;50.678;13.938;2023-04-15T08:16:43;98517.16;;;8.06;93.18
63903;BME280;50072;50.678;13.938;2023-04-15T08:19:09;98516.81;;;8.17;92.74
63903;BME280;50072;50.678;13.938;2023-04-15T08:21:35;98514.69;;;8.26;92.61
63903;BME280;50072;50.678;13.938;2023-04-15T08:24:01;98532.19;;;8.34;90.21
63903;BME280;50072;50.678;13.938;2023-04-15T08:26:27;98534.72;;;8.38;92.62
63903;BME280;50072;50.678;13.938;2023-04-15T08:28:53;98536.84;;;8.55;92.00
63903;BME280;50072;50.678;13.938;2023-04-15T08:31:19;98523.22;;;8.63;90.73
63903;BME280;50072;50.678;13.938;2023-04-15T08:33:45;98531.00;;;8.69;91.33
63903;BME280;50072;50.678;13.938;2023-04-15T08:36:11;98531.00;;;8.69;89.99
63903;BME280;50072;50.678;13.938;2023-04-15T08:38:39;98541.13;;;8.85;86.66
63903;BME280;50072;50.678;13.938;2023-04-15T08:41:22;98530.81;;;8.99;87.54
63903;BME280;50072;50.678;13.938;2023-04-15T08:44:00;98534.31;;;9.01;85.16
63903;BME280;50072;50.678;13.938;2023-04-15T08:46:26;98537.94;;;9.24;86.08
63903;BME280;50072;50.678;13.938;2023-04-15T08:48:55;98542.03;;;9.32;83.25
63903;BME280;50072;50.678;13.938;2023-04-15T08:51:21;98543.47;;;9.41;86.69
63903;BME280;50072;50.678;13.938;2023-04-15T08:53:48;98552.66;;;9.34;82.45
63903;BME280;50072;50.678;13.938;2023-04-15T08:56:15;98553.69;;;9.30;81.99
63903;BME280;50072;50.678;13.938;2023-04-15T08:58:45;98555.28;;;9.36;83.04
63903;BME280;50072;50.678;13.938;2023-04-15T09:01:12;98559.88;;;9.32;81.13
63903;BME280;50072;50.678;13.938;2023-04-15T09:03:38;98569.13;;;9.22;78.55
63903;BME280;50072;50.678;13.938;2023-04-15T09:06:05;98560.84;;;9.29;83.35
63903;BME280;50072;50.678;13.938;2023-04-15T09:08:32;98567.03;;;9.30;80.06
63903;BME280;50072;50.678;13.938;2023-04-15T09:11:02;98564.84;;;9.41;81.73
63903;BME280;50072;50.678;13.938;2023-04-15T09:13:31;98562.88;;;9.46;82.52
63903;BME280;50072;50.678;13.938;2023-04-15T09:15:57;98561.94;;;9.24;76.57
63903;BME280;50072;50.678;13.938;2023-04-15T09:18:28;98554.63;;;9.29;83.50
63903;BME280;50072;50.678;13.938;2023-04-15T09:20:54;98557.34;;;9.27;83.48
63903;BME280;50072;50.678;13.938;2023-04-15T09:23:20;98564.81;;;9.18;85.50
63903;BME280;50072;50.678;13.938;2023-04-15T09:25:47;98568.09;;;9.26;85.02
63903;BME280;50072;50.678;13.938;2023-04-15T09:28:13;98570.31;;;9.38;81.23
63903;BME280;50072;50.678;13.938;2023-04-15T09:30:42;98575.41;;;9.44;79.02
63903;BME280;50072;50.678;13.938;2023-04-15T09:33:13;98579.13;;;9.40;80.68
63903;BME280;50072;50.678;13.938;2023-04-15T09:35:40;98572.56;;;9.49;82.34
63903;BME280;50072;50.678;13.938;2023-04-15T09:38:08;98579.59;;;9.52;81.75
63903;BME280;50072;50.678;13.938;2023-04-15T09:40:36;98586.78;;;9.49;80.64
63903;BME280;50072;50.678;13.938;2023-04-15T09:43:04;98589.59;;;9.46;79.05
63903;BME280;50072;50.678;13.938;2023-04-15T09:45:31;98587.72;;;9.48;79.84
63903;BME280;50072;50.678;13.938;2023-04-15T09:47:59;98592.59;;;9.61;80.12
63903;BME280;50072;50.678;13.938;2023-04-15T09:50:41;98599.56;;;9.65;79.63
63903;BME280;50072;50.678;13.938;2023-04-15T09:53:10;98599.78;;;9.59;78.83
63903;BME280;50072;50.678;13.938;2023-04-15T09:55:43;98604.09;;;9.63;78.94
63903;BME280;50072;50.678;13.938;2023-04-15T09:58:17;98598.69;;;9.64;74.18
63903;BME280;50072;50.678;13.938;2023-04-15T10:00:46;98600.44;;;9.65;79.01
63903;BME280;50072;50.678;13.938;2023-04-15T10:03:14;98600.81;;;9.78;82.37
63903;BME280;50072;50.678;13.938;2023-04-15T10:05:47;98602.06;;;9.92;78.49
63903;BME280;50072;50.678;13.938;2023-04-15T10:08:14;98600.94;;;9.97;77.01
63903;BME280;50072;50.678;13.938;2023-04-15T10:10:40;98602.44;;;10.05;76.43
63903;BME280;50072;50.678;13.938;2023-04-15T10:13:07;98598.66;;;10.10;75.77
63903;BME280;50072;50.678;13.938;2023-04-15T10:15:35;98599.16;;;10.20;74.87
63903;BME280;50072;50.678;13.938;2023-04-15T10:18:01;98595.22;;;10.29;74.52
63903;BME280;50072;50.678;13.938;2023-04-15T10:20:30;98600.94;;;10.43;71.35
63903;BME280;50072;50.678;13.938;2023-04-15T10:22:57;98592.91;;;10.43;73.68
63903;BME280;50072;50.678;13.938;2023-04-15T10:25:23;98595.47;;;10.46;74.79
63903;BME280;50072;50.678;13.938;2023-04-15T10:27:52;98605.59;;;10.38;75.02
63903;BME280;50072;50.678;13.938;2023-04-15T10:30:19;98609.38;;;10.32;74.92
63903;BME280;50072;50.678;13.938;2023-04-15T10:32:45;98623.84;;;10.27;74.08
63903;BME280;50072;50.678;13.938;2023-04-15T10:35:12;98611.81;;;10.16;75.24
63903;BME280;50072;50.678;13.938;2023-04-15T10:37:38;98618.00;;;10.17;75.11
63903;BME280;50072;50.678;13.938;2023-04-15T10:43:23;98626.06;;;10.39;73.92
63903;BME280;50072;50.678;13.938;2023-04-15T10:45:52;98630.38;;;10.43;66.38
63903;BME280;50072;50.678;13.938;2023-04-15T10:48:45;98636.28;;;10.06;63.67
63903;BME280;50072;50.678;13.938;2023-04-15T10:51:14;98629.81;;;9.89;65.14
63903;BME280;50072;50.678;13.938;2023-04-15T10:53:41;98635.66;;;10.21;71.62
63903;BME280;50072;50.678;13.938;2023-04-15T10:56:16;98624.13;;;10.65;71.56
63903;BME280;50072;50.678;13.938;2023-04-15T10:58:44;98624.59;;;10.75;70.76
63903;BME280;50072;50.678;13.938;2023-04-15T11:01:15;98631.72;;;10.74;72.38
63903;BME280;50072;50.678;13.938;2023-04-15T11:03:43;98639.00;;;10.50;65.40
63903;BME280;50072;50.678;13.938;2023-04-15T11:06:11;98638.13;;;10.49;70.51
63903;BME280;50072;50.678;13.938;2023-04-15T11:08:59;98642.63;;;10.25;66.08
63903;BME280;50072;50.678;13.938;2023-04-15T11:12:07;98644.78;;;10.39;68.12
63903;BME280;50072;50.678;13.938;2023-04-15T11:14:39;98647.50;;;10.60;68.20
63903;BME280;50072;50.678;13.938;2023-04-15T11:17:05;98646.31;;;10.67;69.65
63903;BME280;50072;50.678;13.938;2023-04-15T11:19:40;98653.63;;;10.41;64.91
63903;BME280;50072;50.678;13.938;2023-04-15T11:22:10;98654.81;;;10.34;67.96
63903;BME280;50072;50.678;13.938;2023-04-15T11:24:46;98650.22;;;10.38;66.07
63903;BME280;50072;50.678;13.938;2023-04-15T11:27:22;98653.63;;;10.41;65.44
63903;BME280;50072;50.678;13.938;2023-04-15T11:29:49;98653.44;;;10.88;68.12
63903;BME280;50072;50.678;13.938;2023-04-15T11:32:15;98664.03;;;11.12;65.40
63903;BME280;50072;50.678;13.938;2023-04-15T11:34:40;98662.44;;;11.29;66.19
63903;BME280;50072;50.678;13.938;2023-04-15T11:37:06;98670.50;;;11.27;62.66
63903;BME280;50072;50.678;13.938;2023-04-15T11:39:32;98669.19;;;11.17;61.18
63903;BME280;50072;50.678;13.938;2023-04-15T11:42:00;98665.63;;;10.96;61.48
63903;BME280;50072;50.678;13.938;2023-04-15T11:44:26;98664.56;;;11.20;61.24
63903;BME280;50072;50.678;13.938;2023-04-15T11:46:53;98667.25;;;12.00;61.04
63903;BME280;50072;50.678;13.938;2023-04-15T11:49:29;98665.69;;;12.88;61.50
63903;BME280;50072;50.678;13.938;2023-04-15T11:51:56;98674.94;;;13.17;57.42
63903;BME280;50072;50.678;13.938;2023-04-15T11:54:22;98665.50;;;13.94;56.15
63903;BME280;50072;50.678;13.938;2023-04-15T11:56:51;98667.91;;;16.13;50.09
63903;BME280;50072;50.678;13.938;2023-04-15T11:59:18;98673.88;;;15.75;46.90
63903;BME280;50072;50.678;13.938;2023-04-15T12:01:44;98659.88;;;15.68;51.00
63903;BME280;50072;50.678;13.938;2023-04-15T12:04:15;98666.50;;;15.48;54.22
63903;BME280;50072;50.678;13.938;2023-04-15T12:06:48;98665.91;;;14.98;53.75
63903;BME280;50072;50.678;13.938;2023-04-15T12:09:15;98673.28;;;15.11;54.30
63903;BME280;50072;50.678;13.938;2023-04-15T12:11:49;98669.41;;;14.84;52.04
63903;BME280;50072;50.678;13.938;2023-04-15T12:14:26;98677.25;;;14.57;56.37
63903;BME280;50072;50.678;13.938;2023-04-15T12:17:00;98681.94;;;14.22;53.09
63903;BME280;50072;50.678;13.938;2023-04-15T12:19:37;98682.19;;;14.17;53.41
63903;BME280;50072;50.678;13.938;2023-04-15T12:22:05;98680.81;;;14.26;54.25
63903;BME280;50072;50.678;13.938;2023-04-15T12:24:32;98682.91;;;14.37;54.60
63903;BME280;50072;50.678;13.938;2023-04-15T12:27:03;98682.72;;;14.56;54.23
63903;BME280;50072;50.678;13.938;2023-04-15T12:29:31;98681.81;;;15.03;53.92
63903;BME280;50072;50.678;13.938;2023-04-15T12:32:12;98695.88;;;15.53;51.28
63903;BME280;50072;50.678;13.938;2023-04-15T12:34:59;98695.69;;;15.56;45.58
63903;BME280;50072;50.678;13.938;2023-04-15T12:37:25;98693.06;;;15.40;46.96
63903;BME280;50072;50.678;13.938;2023-04-15T12:39:53;98694.16;;;15.52;47.25
63903;BME280;50072;50.678;13.938;2023-04-15T12:42:19;98706.38;;;15.13;47.30
63903;BME280;50072;50.678;13.938;2023-04-15T12:44:45;98707.91;;;14.71;46.92
63903;BME280;50072;50.678;13.938;2023-04-15T12:47:12;98699.75;;;14.40;47.57
63903;BME280;50072;50.678;13.938;2023-04-15T12:49:38;98716.06;;;14.53;48.89
63903;BME280;50072;50.678;13.938;2023-04-15T12:52:04;98698.88;;;14.40;48.49
63903;BME280;50072;50.678;13.938;2023-04-15T12:54:30;98700.31;;;14.93;48.87
63903;BME280;50072;50.678;13.938;2023-04-15T12:56:58;98700.28;;;14.79;46.79
63903;BME280;50072;50.678;13.938;2023-04-15T12:59:24;98712.78;;;14.48;48.32
63903;BME280;50072;50.678;13.938;2023-04-15T13:01:51;98714.84;;;14.43;51.05
63903;BME280;50072;50.678;13.938;2023-04-15T13:04:18;98716.41;;;14.47;48.55
63903;BME280;50072;50.678;13.938;2023-04-15T13:06:44;98714.00;;;14.42;49.37
63903;BME280;50072;50.678;13.938;2023-04-15T13:09:09;98717.47;;;14.28;50.53